createdAt,value
2017-10-08T00:01:07.378Z,53
2017-10-08T00:02:16.056Z,52.81
2017-10-08T00:03:25.024Z,52.91
2017-10-08T00:04:33.686Z,53
2017-10-08T00:05:42.679Z,52.91
2017-10-08T00:06:51.988Z,52.23
2017-10-08T00:08:00.973Z,52.91
2017-10-08T00:09:10.294Z,52.91
2017-10-08T00:10:19.905Z,52.91
2017-10-08T00:11:28.659Z,53.39
2017-10-08T00:12:37.662Z,53.39
2017-10-08T00:13:47.899Z,52.91
2017-10-08T00:14:57.520Z,53.39
2017-10-08T00:16:06.564Z,53.29
2017-10-08T00:17:15.246Z,53.29
2017-10-08T00:18:24.234Z,53.29
2017-10-08T00:19:33.528Z,53.29
2017-10-08T00:20:42.496Z,53.29
2017-10-08T00:21:52.429Z,53.19
2017-10-08T00:23:01.399Z,53.29
2017-10-08T00:24:10.704Z,53.29
2017-10-08T00:25:19.685Z,53.19
2017-10-08T00:26:29.282Z,53.29
2017-10-08T00:27:38.574Z,53.29
2017-10-08T00:28:47.728Z,53.09
2017-10-08T00:29:56.384Z,53.29
2017-10-08T00:31:05.381Z,53.29
2017-10-08T00:32:14.114Z,53.29
2017-10-08T00:33:22.771Z,53.19
2017-10-08T00:34:31.893Z,53.29
2017-10-08T00:35:40.560Z,53.29
2017-10-08T00:36:49.545Z,53.19
2017-10-08T00:37:58.510Z,53.09
2017-10-08T00:39:07.806Z,53
2017-10-08T00:40:16.521Z,52.91
2017-10-08T00:41:25.843Z,53
2017-10-08T00:42:34.814Z,53
2017-10-08T00:43:43.474Z,53
2017-10-08T00:44:52.194Z,53
2017-10-08T00:46:01.479Z,52.52
2017-10-08T00:47:10.783Z,53.09
2017-10-08T00:48:19.447Z,53
2017-10-08T00:49:28.743Z,53.39
2017-10-08T00:50:37.710Z,53.29
2017-10-08T00:51:47.608Z,52.91
2017-10-08T00:52:56.921Z,53
2017-10-08T00:54:06.526Z,53.39
2017-10-08T00:55:15.197Z,53.09
2017-10-08T00:56:24.821Z,53
2017-10-08T00:57:34.115Z,53.09
2017-10-08T00:58:43.424Z,53
2017-10-08T00:59:52.424Z,53.19
2017-10-08T01:01:01.715Z,53.09
2017-10-08T01:02:11.314Z,53
2017-10-08T01:03:19.985Z,53
2017-10-08T01:04:29.278Z,53.09
2017-10-08T01:05:38.267Z,53
2017-10-08T01:06:47.551Z,53.39
2017-10-08T01:07:56.517Z,52.91
2017-10-08T01:09:05.530Z,52.91
2017-10-08T01:10:14.861Z,52.91
2017-10-08T01:11:23.843Z,52.71
2017-10-08T01:12:33.481Z,52.91
2017-10-08T01:13:42.789Z,53.39
2017-10-08T01:14:51.458Z,53.09
2017-10-08T01:16:00.184Z,53.39
2017-10-08T01:17:08.844Z,53.19
2017-10-08T01:18:18.143Z,53.19
2017-10-08T01:19:27.447Z,52.71
2017-10-08T01:20:36.101Z,53.19
2017-10-08T01:21:45.732Z,53.09
2017-10-08T01:22:55.339Z,53.19
2017-10-08T01:24:04.644Z,53.19
2017-10-08T01:25:13.945Z,53
2017-10-08T01:26:22.924Z,53
2017-10-08T01:27:31.902Z,53.19
2017-10-08T01:28:40.885Z,53.09
2017-10-08T01:29:49.575Z,53.09
2017-10-08T01:30:58.879Z,53.19
2017-10-08T01:32:08.020Z,53.19
2017-10-08T01:33:17.624Z,53.19
2017-10-08T01:34:26.599Z,53.19
2017-10-08T01:35:35.576Z,53
2017-10-08T01:36:44.881Z,53.19
2017-10-08T01:37:53.550Z,53
2017-10-08T01:39:02.232Z,53.19
2017-10-08T01:40:11.212Z,53.19
2017-10-08T01:41:20.187Z,53.19
2017-10-08T01:42:28.850Z,53.09
2017-10-08T01:43:37.829Z,53
2017-10-08T01:44:46.486Z,53.09
2017-10-08T01:45:55.143Z,53.09
2017-10-08T01:47:04.144Z,53.19
2017-10-08T01:48:13.452Z,53
2017-10-08T01:49:22.605Z,53.09
2017-10-08T01:50:31.891Z,53
2017-10-08T01:51:40.869Z,53.09
2017-10-08T01:52:49.864Z,53.19
2017-10-08T01:53:58.849Z,53
2017-10-08T01:55:07.934Z,53
2017-10-08T01:56:16.914Z,53.09
2017-10-08T01:57:26.198Z,53.09
2017-10-08T01:58:35.497Z,53.09
2017-10-08T01:59:45.101Z,53.19
2017-10-08T02:00:54.378Z,53
2017-10-08T02:02:03.671Z,53.19
2017-10-08T02:03:12.664Z,53.19
2017-10-08T02:04:21.947Z,53.19
2017-10-08T02:05:30.607Z,53.09
2017-10-08T02:06:40.206Z,53
2017-10-08T02:07:49.180Z,53.29
2017-10-08T02:08:58.167Z,53.09
2017-10-08T02:10:07.796Z,53.09
2017-10-08T02:11:16.478Z,53.09
2017-10-08T02:12:25.509Z,53.09
2017-10-08T02:13:34.194Z,53
2017-10-08T02:14:43.541Z,53.19
2017-10-08T02:15:52.206Z,53.09
2017-10-08T02:17:00.864Z,53.09
2017-10-08T02:18:09.835Z,53.09
2017-10-08T02:19:18.493Z,53.09
2017-10-08T02:20:27.473Z,53.19
2017-10-08T02:21:36.472Z,53
2017-10-08T02:22:45.768Z,53.29
2017-10-08T02:23:54.907Z,53.09
2017-10-08T02:25:03.554Z,53.09
2017-10-08T02:26:12.534Z,53.19
2017-10-08T02:27:21.532Z,53.09
2017-10-08T02:28:30.506Z,53
2017-10-08T02:29:39.881Z,53.09
2017-10-08T02:30:48.588Z,53.09
2017-10-08T02:31:57.596Z,53.09
2017-10-08T02:33:06.869Z,53.09
2017-10-08T02:34:15.860Z,53
2017-10-08T02:35:25.186Z,53.09
2017-10-08T02:36:34.497Z,53
2017-10-08T02:37:43.824Z,53.19
2017-10-08T02:38:53.122Z,53.09
2017-10-08T02:40:02.108Z,53.09
2017-10-08T02:41:11.404Z,53.09
2017-10-08T02:42:20.391Z,53.19
2017-10-08T02:43:29.380Z,53.19
2017-10-08T02:44:38.046Z,53.09
2017-10-08T02:45:47.346Z,53.09
2017-10-08T02:46:56.749Z,53
2017-10-08T02:48:05.718Z,53.19
2017-10-08T02:49:14.701Z,53.19
2017-10-08T02:50:23.685Z,53.09
2017-10-08T02:51:32.360Z,53.19
2017-10-08T02:52:41.033Z,53.19
2017-10-08T02:53:50.018Z,53.19
2017-10-08T02:54:58.696Z,53.19
2017-10-08T02:56:07.973Z,53.09
2017-10-08T02:57:17.910Z,53.29
2017-10-08T02:58:27.520Z,52.91
2017-10-08T02:59:36.816Z,53.09
2017-10-08T03:00:46.437Z,53.09
2017-10-08T03:01:55.726Z,53.29
2017-10-08T03:03:05.329Z,53.19
2017-10-08T03:04:14.612Z,52.91
2017-10-08T03:05:23.893Z,52.91
2017-10-08T03:06:32.564Z,52.91
2017-10-08T03:07:41.878Z,53.09
2017-10-08T03:08:50.879Z,52.91
2017-10-08T03:10:00.169Z,52.91
2017-10-08T03:11:08.839Z,53.09
2017-10-08T03:12:17.501Z,52.91
2017-10-08T03:13:26.164Z,53
2017-10-08T03:14:35.507Z,52.91
2017-10-08T03:15:44.296Z,52.91
2017-10-08T03:16:53.605Z,52.91
2017-10-08T03:18:02.577Z,52.91
2017-10-08T03:19:11.560Z,53.09
2017-10-08T03:20:20.860Z,52.91
2017-10-08T03:21:30.144Z,52.91
2017-10-08T03:22:39.125Z,53
2017-10-08T03:23:48.109Z,53
2017-10-08T03:24:57.395Z,53
2017-10-08T03:26:06.719Z,53
2017-10-08T03:27:15.763Z,52.91
2017-10-08T03:28:24.427Z,53
2017-10-08T03:29:33.412Z,53
2017-10-08T03:30:42.699Z,52.81
2017-10-08T03:31:51.984Z,53
2017-10-08T03:33:01.577Z,53
2017-10-08T03:34:10.570Z,53
2017-10-08T03:35:19.858Z,52.91
2017-10-08T03:36:29.467Z,52.91
2017-10-08T03:37:38.128Z,52.91
2017-10-08T03:38:47.217Z,52.81
2017-10-08T03:39:56.204Z,52.91
2017-10-08T03:41:04.879Z,52.91
2017-10-08T03:42:14.489Z,52.91
2017-10-08T03:43:23.501Z,53
2017-10-08T03:44:32.474Z,53.09
2017-10-08T03:45:41.447Z,52.81
2017-10-08T03:46:50.429Z,52.91
2017-10-08T03:47:59.407Z,52.91
2017-10-08T03:49:08.384Z,53
2017-10-08T03:50:17.674Z,52.91
2017-10-08T03:51:26.966Z,52.91
2017-10-08T03:52:35.957Z,52.91
2017-10-08T03:53:44.641Z,53
2017-10-08T03:54:53.615Z,53
2017-10-08T03:56:02.289Z,52.91
2017-10-08T03:57:11.259Z,53
2017-10-08T03:58:20.561Z,52.91
2017-10-08T03:59:29.856Z,52.91
2017-10-08T04:00:38.832Z,52.91
2017-10-08T04:01:47.519Z,52.81
2017-10-08T04:02:56.807Z,53
2017-10-08T04:04:05.497Z,52.91
2017-10-08T04:05:14.848Z,52.91
2017-10-08T04:06:56.547Z,52.91
2017-10-08T04:08:05.549Z,52.81
2017-10-08T04:09:15.190Z,52.91
2017-10-08T04:10:23.860Z,53
2017-10-08T04:11:33.158Z,52.91
2017-10-08T04:12:42.295Z,52.81
2017-10-08T04:13:50.962Z,53
2017-10-08T04:14:59.965Z,52.91
2017-10-08T04:16:08.960Z,52.91
2017-10-08T04:17:17.632Z,53
2017-10-08T04:18:27.130Z,53
2017-10-08T04:19:36.121Z,52.91
2017-10-08T04:20:45.126Z,53
2017-10-08T04:21:54.111Z,53
2017-10-08T04:23:04.047Z,52.91
2017-10-08T04:24:13.342Z,53
2017-10-08T04:25:22.008Z,52.91
2017-10-08T04:26:31.300Z,53
2017-10-08T04:27:40.286Z,53
2017-10-08T04:28:49.575Z,52.91
2017-10-08T04:29:58.884Z,52.91
2017-10-08T04:31:08.198Z,52.91
2017-10-08T04:32:17.172Z,53
2017-10-08T04:33:26.494Z,52.91
2017-10-08T04:34:35.813Z,52.91
2017-10-08T04:35:44.789Z,52.91
2017-10-08T04:36:53.444Z,52.91
2017-10-08T04:38:02.436Z,53
2017-10-08T04:39:11.186Z,53
2017-10-08T04:40:19.875Z,53
2017-10-08T04:41:29.501Z,52.91
2017-10-08T04:42:38.182Z,52.91
2017-10-08T04:43:47.190Z,53
2017-10-08T04:44:56.498Z,52.91
2017-10-08T04:46:05.795Z,53.09
2017-10-08T04:47:15.094Z,53.09
2017-10-08T04:48:24.704Z,53.09
2017-10-08T04:49:33.704Z,53.09
2017-10-08T04:50:43.014Z,53
2017-10-08T04:51:52.318Z,52.91
2017-10-08T04:53:02.030Z,52.91
2017-10-08T04:54:11.032Z,53
2017-10-08T04:55:20.318Z,52.91
2017-10-08T04:56:29.318Z,53
2017-10-08T04:57:38.319Z,52.91
2017-10-08T04:58:47.946Z,53.09
2017-10-08T04:59:56.942Z,52.91
2017-10-08T05:01:05.612Z,52.91
2017-10-08T05:02:14.921Z,53.19
2017-10-08T05:03:24.222Z,53.09
2017-10-08T05:04:33.688Z,53
2017-10-08T05:05:42.666Z,53.09
2017-10-08T05:06:51.639Z,53.09
2017-10-08T05:08:00.318Z,53.19
2017-10-08T05:09:09.926Z,53.09
2017-10-08T05:10:18.657Z,53
2017-10-08T05:11:27.636Z,53.09
2017-10-08T05:12:36.629Z,53.09
2017-10-08T05:13:45.615Z,53.19
2017-10-08T05:14:54.626Z,53.19
2017-10-08T05:16:03.392Z,53.09
2017-10-08T05:17:12.067Z,53.09
2017-10-08T05:18:20.746Z,53.19
2017-10-08T05:19:30.380Z,53.09
2017-10-08T05:20:39.673Z,53.09
2017-10-08T05:21:48.992Z,53.09
2017-10-08T05:22:57.975Z,53.09
2017-10-08T05:24:06.967Z,53.09
2017-10-08T05:25:15.983Z,53
2017-10-08T05:26:24.976Z,52.81
2017-10-08T05:27:34.341Z,53.09
2017-10-08T05:28:43.956Z,53.09
2017-10-08T05:29:53.311Z,53
2017-10-08T05:31:02.618Z,53.09
2017-10-08T05:32:11.606Z,53.09
2017-10-08T05:33:20.279Z,53.19
2017-10-08T05:34:29.300Z,53
2017-10-08T05:35:38.314Z,53
2017-10-08T05:36:46.993Z,53.19
2017-10-08T05:37:56.299Z,53.09
2017-10-08T05:39:05.280Z,53.09
2017-10-08T05:40:14.278Z,53
2017-10-08T05:41:23.283Z,53.09
2017-10-08T05:42:31.960Z,53
2017-10-08T05:43:40.944Z,53.09
2017-10-08T05:44:49.935Z,53.09
2017-10-08T05:45:59.552Z,53
2017-10-08T05:47:08.224Z,53.09
2017-10-08T05:48:17.517Z,53.09
2017-10-08T05:49:26.505Z,53.09
2017-10-08T05:50:35.329Z,53.19
2017-10-08T05:51:44.015Z,53.09
2017-10-08T05:52:53.020Z,53
2017-10-08T05:54:01.691Z,53.19
2017-10-08T05:55:10.689Z,53.09
2017-10-08T05:56:19.678Z,53.09
2017-10-08T05:57:29.618Z,53.09
2017-10-08T05:58:38.944Z,53.19
2017-10-08T05:59:47.605Z,53.19
2017-10-08T06:00:56.291Z,53.19
2017-10-08T06:02:05.281Z,53.09
2017-10-08T06:03:15.227Z,53.09
2017-10-08T06:04:24.226Z,53.09
2017-10-08T06:05:33.223Z,53.09
2017-10-08T06:06:42.831Z,53.09
2017-10-08T06:07:53.053Z,53.19
2017-10-08T06:09:02.051Z,53
2017-10-08T06:10:11.070Z,53.19
2017-10-08T06:11:19.733Z,53.19
2017-10-08T06:12:29.355Z,53
2017-10-08T06:13:38.677Z,53.19
2017-10-08T06:14:47.660Z,53.19
2017-10-08T06:15:56.388Z,53.19
2017-10-08T06:17:05.385Z,52.91
2017-10-08T06:18:14.711Z,52.91
2017-10-08T06:19:23.701Z,53
2017-10-08T06:20:32.358Z,52.91
2017-10-08T06:21:41.371Z,52.91
2017-10-08T06:22:51.439Z,53.29
2017-10-08T06:24:00.999Z,53.29
2017-10-08T06:25:11.068Z,53.29
2017-10-08T06:26:19.866Z,53.29
2017-10-08T06:27:28.914Z,53.29
2017-10-08T06:28:38.349Z,52.91
2017-10-08T06:29:48.412Z,52.91
2017-10-08T06:30:58.236Z,52.91
2017-10-08T06:32:08.336Z,52.52
2017-10-08T06:33:18.040Z,52.52
2017-10-08T06:34:27.193Z,52.55
2017-10-08T06:35:36.211Z,52.45
2017-10-08T06:36:46.149Z,52.45
2017-10-08T06:37:55.466Z,52.55
2017-10-08T06:39:04.142Z,52.73
2017-10-08T06:40:13.536Z,52.73
2017-10-08T06:41:22.970Z,52.64
2017-10-08T06:42:32.062Z,52.73
2017-10-08T06:43:41.373Z,52.55
2017-10-08T06:44:51.120Z,52.25
2017-10-08T06:46:00.844Z,52.35
2017-10-08T06:47:09.551Z,52.45
2017-10-08T06:48:19.666Z,52.35
2017-10-08T06:49:28.342Z,52.25
2017-10-08T06:50:38.124Z,52.35
2017-10-08T06:51:47.443Z,52.55
2017-10-08T06:52:56.730Z,52.35
2017-10-08T06:54:05.834Z,52.16
2017-10-08T06:55:14.600Z,52.83
2017-10-08T06:56:23.622Z,52.35
2017-10-08T06:57:32.980Z,52.55
2017-10-08T06:58:41.993Z,52.35
2017-10-08T06:59:51.280Z,52.35
2017-10-08T07:01:00.605Z,52.35
2017-10-08T07:02:09.607Z,52.35
2017-10-08T07:03:18.606Z,52.45
2017-10-08T07:04:27.592Z,52.83
2017-10-08T07:05:37.605Z,52.45
2017-10-08T07:06:46.321Z,52.93
2017-10-08T07:07:55.289Z,52.73
2017-10-08T07:09:04.268Z,52.83
2017-10-08T07:10:13.260Z,52.55
2017-10-08T07:11:22.567Z,52.83
2017-10-08T07:12:32.327Z,52.73
2017-10-08T07:13:41.723Z,52.45
2017-10-08T07:14:51.046Z,52.55
2017-10-08T07:15:59.742Z,52.64
2017-10-08T07:17:08.471Z,52.64
2017-10-08T07:18:17.471Z,52.64
2017-10-08T07:19:26.473Z,52.64
2017-10-08T07:20:35.783Z,52.64
2017-10-08T07:21:44.783Z,52.45
2017-10-08T07:22:54.146Z,52.64
2017-10-08T07:24:03.142Z,52.64
2017-10-08T07:25:11.825Z,52.55
2017-10-08T07:26:20.834Z,52.55
2017-10-08T07:27:30.132Z,52.45
2017-10-08T07:28:39.490Z,52.64
2017-10-08T07:29:48.810Z,52.55
2017-10-08T07:30:58.176Z,52.64
2017-10-08T07:32:06.848Z,52.45
2017-10-08T07:33:16.466Z,52.45
2017-10-08T07:34:25.791Z,52.45
2017-10-08T07:35:35.114Z,52.73
2017-10-08T07:36:44.439Z,52.64
2017-10-08T07:37:53.496Z,52.64
2017-10-08T07:39:02.484Z,52.73
2017-10-08T07:40:11.787Z,52.83
2017-10-08T07:41:20.778Z,52.55
2017-10-08T07:42:29.760Z,52.35
2017-10-08T07:43:39.138Z,52.55
2017-10-08T07:44:48.464Z,52.55
2017-10-08T07:45:57.239Z,52.55
2017-10-08T07:47:06.547Z,51.97
2017-10-08T07:48:15.542Z,52.55
2017-10-08T07:49:24.549Z,52.55
2017-10-08T07:50:33.892Z,52.64
2017-10-08T07:51:42.950Z,52.55
2017-10-08T07:52:51.986Z,52.73
2017-10-08T07:54:01.370Z,52.64
2017-10-08T07:55:10.355Z,51.87
2017-10-08T07:56:19.976Z,52.06
2017-10-08T07:57:28.966Z,51.97
2017-10-08T07:58:38.010Z,51.97
2017-10-08T07:59:47.005Z,51.58
2017-10-08T08:00:56.327Z,51.77
2017-10-08T08:02:05.632Z,51.51
2017-10-08T08:03:14.445Z,51.8
2017-10-08T08:04:23.121Z,51.99
2017-10-08T08:05:31.788Z,51.89
2017-10-08T08:06:40.763Z,51.89
2017-10-08T08:07:49.436Z,51.99
2017-10-08T08:08:58.736Z,51.89
2017-10-08T08:10:07.730Z,51.89
2017-10-08T08:11:16.465Z,51.89
2017-10-08T08:12:25.470Z,52.09
2017-10-08T08:13:34.154Z,51.89
2017-10-08T08:14:42.837Z,51.7
2017-10-08T08:15:51.864Z,51.8
2017-10-08T08:17:01.186Z,51.61
2017-10-08T08:18:10.215Z,51.89
2017-10-08T08:19:18.877Z,51.61
2017-10-08T08:20:27.889Z,51.7
2017-10-08T08:21:37.414Z,51.51
2017-10-08T08:22:46.736Z,51.41
2017-10-08T08:23:55.742Z,51.41
2017-10-08T08:25:04.712Z,51.22
2017-10-08T08:26:13.685Z,51.03
2017-10-08T08:27:22.688Z,51.22
2017-10-08T08:28:31.681Z,51.22
2017-10-08T08:29:40.676Z,50.96
2017-10-08T08:30:49.451Z,51.34
2017-10-08T08:31:59.064Z,51.34
2017-10-08T08:33:08.114Z,50.96
2017-10-08T08:34:17.112Z,51.25
2017-10-08T08:35:26.108Z,51.05
2017-10-08T08:36:35.099Z,51.34
2017-10-08T08:37:44.143Z,51.44
2017-10-08T08:38:53.132Z,51.15
2017-10-08T08:40:02.110Z,50.96
2017-10-08T08:41:11.413Z,50.67
2017-10-08T08:42:20.103Z,50.76
2017-10-08T08:43:29.153Z,50.76
2017-10-08T08:44:38.776Z,50.86
2017-10-08T08:45:47.818Z,50.57
2017-10-08T08:46:57.118Z,50.76
2017-10-08T08:48:06.728Z,50.47
2017-10-08T08:49:16.189Z,50.86
2017-10-08T08:50:24.920Z,50.67
2017-10-08T08:51:34.272Z,50.69
2017-10-08T08:52:42.988Z,50.98
2017-10-08T08:53:51.672Z,50.79
2017-10-08T08:55:00.801Z,50.76
2017-10-08T08:56:09.790Z,50.79
2017-10-08T08:57:18.532Z,50.69
2017-10-08T08:58:28.539Z,50.79
2017-10-08T08:59:37.582Z,50.89
2017-10-08T09:00:46.431Z,50.89
2017-10-08T09:01:55.755Z,50.69
2017-10-08T09:03:05.087Z,50.89
2017-10-08T09:04:14.068Z,50.79
2017-10-08T09:05:23.139Z,51.07
2017-10-08T09:06:32.942Z,51.53
2017-10-08T09:07:41.637Z,52.57
2017-10-08T09:08:51.261Z,53.15
2017-10-08T09:09:59.923Z,53.44
2017-10-08T09:11:08.897Z,53.8
2017-10-08T09:12:18.340Z,54.38
2017-10-08T09:13:27.515Z,54.54
2017-10-08T09:14:37.675Z,54.54
2017-10-08T09:15:48.571Z,55
2017-10-08T09:16:58.685Z,55.57
2017-10-08T09:18:08.019Z,55.77
2017-10-08T09:19:17.710Z,56.03
2017-10-08T09:20:27.597Z,56.51
2017-10-08T09:21:36.987Z,56.6
2017-10-08T09:22:46.855Z,56.2
2017-10-08T09:23:55.828Z,57.06
2017-10-08T09:25:05.246Z,56.87
2017-10-08T09:26:14.675Z,57.45
2017-10-08T09:27:23.988Z,57.8
2017-10-08T09:28:33.598Z,57.7
2017-10-08T09:29:42.300Z,58.18
2017-10-08T09:30:51.605Z,58.09
2017-10-08T09:32:01.202Z,58.18
2017-10-08T09:33:11.141Z,58.18
2017-10-08T09:34:20.129Z,58.57
2017-10-08T09:35:29.444Z,58.76
2017-10-08T09:36:39.069Z,58.47
2017-10-08T09:37:48.076Z,58.28
2017-10-08T09:38:57.399Z,58.73
2017-10-08T09:40:06.395Z,58.45
2017-10-08T09:41:16.031Z,58.45
2017-10-08T09:42:25.036Z,58.73
2017-10-08T09:43:36.238Z,58.73
2017-10-08T09:44:46.501Z,58.54
2017-10-08T09:45:56.118Z,58.92
2017-10-08T09:47:04.784Z,58.64
2017-10-08T09:48:15.604Z,58.64
2017-10-08T09:49:24.925Z,58.64
2017-10-08T09:50:33.911Z,59.22
2017-10-08T09:51:42.909Z,59.22
2017-10-08T09:52:52.216Z,59.09
2017-10-08T09:54:00.883Z,58.89
2017-10-08T09:55:09.572Z,58.89
2017-10-08T09:56:18.881Z,59.19
2017-10-08T09:57:28.598Z,59.22
2017-10-08T09:58:37.949Z,59.28
2017-10-08T09:59:46.660Z,58.99
2017-10-08T10:00:55.668Z,59.09
2017-10-08T10:02:04.677Z,59.09
2017-10-08T10:03:13.695Z,58.99
2017-10-08T10:04:22.723Z,59.19
2017-10-08T10:05:32.386Z,59.28
2017-10-08T10:06:41.379Z,58.99
2017-10-08T10:07:50.435Z,59.19
2017-10-08T10:08:59.117Z,58.89
2017-10-08T10:10:08.808Z,58.99
2017-10-08T10:11:17.486Z,58.51
2017-10-08T10:12:26.190Z,58.61
2017-10-08T10:13:35.814Z,58.61
2017-10-08T10:14:44.489Z,58.7
2017-10-08T10:15:53.225Z,58.7
2017-10-08T10:17:01.897Z,58.51
2017-10-08T10:18:11.015Z,58.7
2017-10-08T10:19:20.368Z,58.7
2017-10-08T10:20:29.713Z,58.61
2017-10-08T10:21:38.858Z,58.61
2017-10-08T10:22:48.255Z,58.8
2017-10-08T10:23:57.222Z,58.7
2017-10-08T10:25:06.266Z,58.61
2017-10-08T10:26:15.332Z,58.99
2017-10-08T10:27:24.305Z,58.7
2017-10-08T10:28:33.281Z,58.42
2017-10-08T10:29:42.015Z,58.51
2017-10-08T10:30:51.152Z,58.61
2017-10-08T10:32:00.062Z,58.7
2017-10-08T10:33:09.128Z,58.42
2017-10-08T10:34:18.427Z,58.61
2017-10-08T10:35:28.048Z,58.7
2017-10-08T10:36:37.056Z,58.51
2017-10-08T10:37:46.510Z,58.32
2017-10-08T10:38:55.814Z,58.51
2017-10-08T10:40:04.844Z,58.61
2017-10-08T10:41:14.451Z,58.61
2017-10-08T10:42:24.116Z,58.51
2017-10-08T10:43:33.457Z,58.42
2017-10-08T10:44:42.254Z,58.61
2017-10-08T10:45:52.222Z,58.7
2017-10-08T10:47:00.879Z,58.99
2017-10-08T10:48:10.212Z,58.51
2017-10-08T10:49:19.228Z,58.51
2017-10-08T10:50:27.894Z,59.09
2017-10-08T10:51:37.565Z,59.19
2017-10-08T10:52:46.564Z,59.28
2017-10-08T10:53:55.243Z,59.19
2017-10-08T10:55:04.392Z,59.09
2017-10-08T10:56:13.705Z,59.09
2017-10-08T10:57:22.978Z,59.38
2017-10-08T10:58:31.963Z,58.99
2017-10-08T10:59:41.257Z,58.32
2017-10-08T11:00:50.230Z,58.22
2017-10-08T11:01:59.900Z,57.48
2017-10-08T11:03:08.655Z,56.91
2017-10-08T11:04:18.408Z,57
2017-10-08T11:05:28.339Z,56.65
2017-10-08T11:06:37.111Z,56.36
2017-10-08T11:07:46.409Z,55.98
2017-10-08T11:08:55.709Z,55.98
2017-10-08T11:10:04.479Z,55.52
2017-10-08T11:11:13.792Z,54.94
2017-10-08T11:12:22.454Z,54.75
2017-10-08T11:13:31.442Z,54.94
2017-10-08T11:14:40.128Z,54.49
2017-10-08T11:15:49.451Z,54.68
2017-10-08T11:16:59.072Z,54.3
2017-10-08T11:18:08.480Z,54.49
2017-10-08T11:19:17.467Z,54.3
2017-10-08T11:20:27.068Z,54.39
2017-10-08T11:21:36.370Z,54
2017-10-08T11:22:45.359Z,54.2
2017-10-08T11:23:54.364Z,54.22
2017-10-08T11:25:03.354Z,54.32
2017-10-08T11:26:12.354Z,53.94
2017-10-08T11:27:21.399Z,54.13
2017-10-08T11:28:30.084Z,53.17
2017-10-08T11:29:39.053Z,53.65
2017-10-08T11:30:48.040Z,53.65
2017-10-08T11:31:57.021Z,53.19
2017-10-08T11:33:06.120Z,53.19
2017-10-08T11:34:16.373Z,53.39
2017-10-08T11:35:25.372Z,53.29
2017-10-08T11:36:34.412Z,53
2017-10-08T11:37:43.524Z,53
2017-10-08T11:38:52.502Z,53.09
2017-10-08T11:40:01.523Z,53.29
2017-10-08T11:41:10.310Z,53.48
2017-10-08T11:42:18.961Z,53
2017-10-08T11:43:28.279Z,52.91
2017-10-08T11:44:37.106Z,53.13
2017-10-08T11:45:46.014Z,53.09
2017-10-08T11:46:55.217Z,53.22
2017-10-08T11:48:04.281Z,53.31
2017-10-08T11:49:14.842Z,53.31
2017-10-08T11:50:23.538Z,52.93
2017-10-08T11:51:32.568Z,52.83
2017-10-08T11:52:42.465Z,52.83
2017-10-08T11:53:51.505Z,52.83
2017-10-08T11:55:00.496Z,52.64
2017-10-08T11:56:09.163Z,52.55
2017-10-08T11:57:18.451Z,52.55
2017-10-08T11:58:27.653Z,52.64
2017-10-08T11:59:36.841Z,52.64
2017-10-08T12:00:45.665Z,52.55
2017-10-08T12:01:54.356Z,52.64
2017-10-08T12:03:03.331Z,52.93
2017-10-08T12:04:12.330Z,52.86
2017-10-08T12:05:22.285Z,52.64
2017-10-08T12:06:31.009Z,52.37
2017-10-08T12:07:39.680Z,52.47
2017-10-08T12:08:48.988Z,52.47
2017-10-08T12:09:58.278Z,52.47
2017-10-08T12:11:06.971Z,52.47
2017-10-08T12:12:16.272Z,52.47
2017-10-08T12:13:25.586Z,52.47
2017-10-08T12:14:34.888Z,52.09
2017-10-08T12:15:44.304Z,52.47
2017-10-08T12:16:53.916Z,52.37
2017-10-08T12:18:02.662Z,52.95
2017-10-08T12:19:12.358Z,52.47
2017-10-08T12:20:21.372Z,52.19
2017-10-08T12:21:30.518Z,52.37
2017-10-08T12:22:39.506Z,52.86
2017-10-08T12:23:48.819Z,53.05
2017-10-08T12:24:57.796Z,52.57
2017-10-08T12:26:06.780Z,52.95
2017-10-08T12:27:15.821Z,52.95
2017-10-08T12:28:24.821Z,52.57
2017-10-08T12:29:33.797Z,52.67
2017-10-08T12:30:42.790Z,52.67
2017-10-08T12:31:51.786Z,52.76
2017-10-08T12:33:00.879Z,52.86
2017-10-08T12:34:09.897Z,52.86
2017-10-08T12:35:18.650Z,52.86
2017-10-08T12:36:28.256Z,52.76
2017-10-08T12:37:37.238Z,52.67
2017-10-08T12:38:46.247Z,52.76
2017-10-08T12:39:55.603Z,52.47
2017-10-08T12:41:04.257Z,52.47
2017-10-08T12:42:13.124Z,52.76
2017-10-08T12:43:22.790Z,52.67
2017-10-08T12:44:31.870Z,52.76
2017-10-08T12:45:40.561Z,52.47
2017-10-08T12:46:49.671Z,52.47
2017-10-08T12:47:59.736Z,52.47
2017-10-08T12:49:08.428Z,52.47
2017-10-08T12:50:17.168Z,52.47
2017-10-08T12:51:25.985Z,52.57
2017-10-08T12:52:35.646Z,52.76
2017-10-08T12:53:45.426Z,52.57
2017-10-08T12:54:55.050Z,52.67
2017-10-08T12:56:04.357Z,52.67
2017-10-08T12:57:13.493Z,52.47
2017-10-08T12:58:23.143Z,52.57
2017-10-08T12:59:32.282Z,52.47
2017-10-08T13:00:41.326Z,52.47
2017-10-08T13:01:51.087Z,52.47
2017-10-08T13:03:00.711Z,52.47
2017-10-08T13:04:10.273Z,52.57
2017-10-08T13:05:19.858Z,52.37
2017-10-08T13:06:28.544Z,52.37
2017-10-08T13:07:38.411Z,52.67
2017-10-08T13:08:47.859Z,52.86
2017-10-08T13:09:56.825Z,52.28
2017-10-08T13:11:05.509Z,53.25
2017-10-08T13:12:14.201Z,52.95
2017-10-08T13:13:23.171Z,52.95
2017-10-08T13:14:32.789Z,52.86
2017-10-08T13:15:41.767Z,53.05
2017-10-08T13:16:51.051Z,52.86
2017-10-08T13:18:00.379Z,52.76
2017-10-08T13:19:09.990Z,52.57
2017-10-08T13:20:18.655Z,52.57
2017-10-08T13:21:28.288Z,52.57
2017-10-08T13:22:37.586Z,52.67
2017-10-08T13:23:46.246Z,52.47
2017-10-08T13:24:55.247Z,52.57
2017-10-08T13:26:04.899Z,52.79
2017-10-08T13:27:13.577Z,52.76
2017-10-08T13:28:22.870Z,52.67
2017-10-08T13:29:31.550Z,52.67
2017-10-08T13:30:40.508Z,52.57
2017-10-08T13:31:49.831Z,52.47
2017-10-08T13:32:58.817Z,52.47
2017-10-08T13:34:08.121Z,52.47
2017-10-08T13:35:16.776Z,52.5
2017-10-08T13:36:26.233Z,52.59
2017-10-08T13:37:36.145Z,52.69
2017-10-08T13:38:44.841Z,52.89
2017-10-08T13:39:53.820Z,53.05
2017-10-08T13:41:02.805Z,53.44
2017-10-08T13:42:11.487Z,53.92
2017-10-08T13:43:20.482Z,54.18
2017-10-08T13:44:29.156Z,54.09
2017-10-08T13:45:38.153Z,53.99
2017-10-08T13:46:47.171Z,53.89
2017-10-08T13:47:56.474Z,54.09
2017-10-08T13:49:06.098Z,54.28
2017-10-08T13:50:14.784Z,53.89
2017-10-08T13:51:24.067Z,54.18
2017-10-08T13:52:33.034Z,53.99
2017-10-08T13:53:41.710Z,54.18
2017-10-08T13:54:51.007Z,54.18
2017-10-08T13:55:59.998Z,54.18
2017-10-08T13:57:09.008Z,53.99
2017-10-08T13:58:18.010Z,53.8
2017-10-08T13:59:27.323Z,53.99
2017-10-08T14:00:36.616Z,53.7
2017-10-08T14:01:45.611Z,53.89
2017-10-08T14:02:54.918Z,53.99
2017-10-08T14:04:03.902Z,53.99
2017-10-08T14:05:13.223Z,53.89
2017-10-08T14:06:21.905Z,53.8
2017-10-08T14:07:30.584Z,54.21
2017-10-08T14:08:39.914Z,54.11
2017-10-08T14:09:48.898Z,54.11
2017-10-08T14:10:58.216Z,54.02
2017-10-08T14:12:07.200Z,54.02
2017-10-08T14:13:16.197Z,54.02
2017-10-08T14:14:25.333Z,54.11
2017-10-08T14:15:34.679Z,53.73
2017-10-08T14:16:44.768Z,53.73
2017-10-08T14:17:54.494Z,54.02
2017-10-08T14:19:03.260Z,54.11
2017-10-08T14:20:13.280Z,54.11
2017-10-08T14:21:21.958Z,54.11
2017-10-08T14:22:30.956Z,54.11
2017-10-08T14:23:39.656Z,54.02
2017-10-08T14:24:48.945Z,54.02
2017-10-08T14:25:57.928Z,54.02
2017-10-08T14:27:06.916Z,54.02
2017-10-08T14:28:15.995Z,53.83
2017-10-08T14:29:25.016Z,53.44
2017-10-08T14:30:34.011Z,53.44
2017-10-08T14:31:42.998Z,54.02
2017-10-08T14:32:51.987Z,54.02
2017-10-08T14:34:01.285Z,54.31
2017-10-08T14:35:10.295Z,54.21
2017-10-08T14:36:18.957Z,53.92
2017-10-08T14:37:27.937Z,54.02
2017-10-08T14:38:37.556Z,53.83
2017-10-08T14:39:47.185Z,54.11
2017-10-08T14:40:55.878Z,54.11
2017-10-08T14:42:04.560Z,54.11
2017-10-08T14:43:13.577Z,54.4
2017-10-08T14:44:22.564Z,54.21
2017-10-08T14:45:31.692Z,54.21
2017-10-08T14:46:41.670Z,54.21
2017-10-08T14:47:50.978Z,54.21
2017-10-08T14:48:59.962Z,54.21
2017-10-08T14:50:08.958Z,54.31
2017-10-08T14:51:18.004Z,54.31
2017-10-08T14:52:26.677Z,54.31
2017-10-08T14:53:35.648Z,54.31
2017-10-08T14:54:44.650Z,54.31
2017-10-08T14:55:53.307Z,54.31
2017-10-08T14:57:02.347Z,53.83
2017-10-08T14:58:11.019Z,53.83
2017-10-08T14:59:19.699Z,54.11
2017-10-08T15:00:28.986Z,54.21
2017-10-08T15:01:37.651Z,54.11